Time;durP1;ratioP1;P1;durP2;ratioP2;P2;SDS_P1;SDS_P2;PMS_P1;PMS_P2;Temp;Humidity;BMP_temperature;BMP_pressure;BME280_temperature;BME280_humidity;BME280_pressure;Samples;Min_cycle;Max_cycle;Signal;HPM_P1;HPM_P2
2023/01/13 00:00:19;;;;;;;;;;;4.80;93.00;;;;;;5054389;28;20028;-87
2023/01/13 00:02:45;;;;;;;;;;;4.70;92.80;;;;;;5054273;28;19939;-87
2023/01/13 00:05:11;;;;;;;;;;;4.70;92.80;;;;;;5054317;28;20033;-87
2023/01/13 00:07:38;;;;;;;;;;;4.70;92.80;;;;;;5054176;28;20382;-87
2023/01/13 00:10:08;;;;;;;;;;;4.60;93.10;;;;;;5054156;28;19955;-87
2023/01/13 00:12:33;;;;;;;;;;;4.60;93.00;;;;;;5036049;28;20000;-87
2023/01/13 00:14:59;;;;;;;;;;;4.60;93.00;;;;;;5054069;28;20012;-87
2023/01/13 00:17:24;;;;;;;;;;;4.60;92.90;;;;;;5054008;28;20038;-87
2023/01/13 00:19:50;;;;;;;;;;;4.60;92.80;;;;;;5059833;28;20397;-87
2023/01/13 00:22:15;;;;;;;;;;;4.60;93.10;;;;;;5073940;28;19935;-87
2023/01/13 00:24:41;;;;;;;;;;;4.60;93.20;;;;;;5073967;28;19951;-87
2023/01/13 00:27:06;;;;;;;;;;;4.50;93.30;;;;;;5055961;28;19939;-87
2023/01/13 00:29:32;;;;;;;;;;;4.60;93.30;;;;;;5073858;28;19937;-87
2023/01/13 00:31:57;;;;;;;;;;;4.50;93.80;;;;;;5073764;28;20391;-87
2023/01/13 00:34:23;;;;;;;;;;;4.50;94.10;;;;;;5073512;28;19961;-87
2023/01/13 00:36:49;;;;;;;;;;;4.60;93.90;;;;;;5073008;28;19994;-87
2023/01/13 00:39:14;;;;;;;;;;;4.50;93.70;;;;;;5073668;28;19940;-86
2023/01/13 00:44:24;;;;;;;;;;;4.60;93.80;;;;;;5053600;28;20343;-87
2023/01/13 00:46:49;;;;;;;;;;;4.60;93.90;;;;;;5053544;28;19936;-87
2023/01/13 00:49:15;;;;;;;;;;;4.60;93.90;;;;;;5053522;28;19938;-87
2023/01/13 00:51:40;;;;;;;;;;;4.60;94.20;;;;;;5053473;28;20420;-87
2023/01/13 00:54:06;;;;;;;;;;;4.60;94.20;;;;;;5053220;28;19963;-86
2023/01/13 00:56:32;;;;;;;;;;;4.50;94.40;;;;;;5053277;28;19945;-86
2023/01/13 00:58:57;;;;;;;;;;;4.50;94.50;;;;;;5053278;28;20040;-87
2023/01/13 01:01:24;;;;;;;;;;;4.50;94.70;;;;;;5053312;28;19985;-87
2023/01/13 01:03:50;;;;;;;;;;;4.60;94.60;;;;;;5053233;28;20423;-87
2023/01/13 01:06:20;;;;;;;;;;;4.60;94.50;;;;;;5053178;28;20356;-87
2023/01/13 01:08:46;;;;;;;;;;;4.70;94.50;;;;;;5053144;28;20462;-86
2023/01/13 01:11:13;;;;;;;;;;;4.70;94.20;;;;;;5059947;28;19979;-86
2023/01/13 01:13:39;;;;;;;;;;;4.70;94.10;;;;;;5093275;22;19975;-86
2023/01/13 01:16:05;;;;;;;;;;;4.70;93.90;;;;;;5093364;28;19953;-87
2023/01/13 01:18:35;;;;;;;;;;;4.70;93.80;;;;;;5093299;28;20044;-86
2023/01/13 01:21:01;;;;;;;;;;;4.70;93.80;;;;;;5093078;28;20041;-87
2023/01/13 01:23:27;;;;;;;;;;;4.70;93.90;;;;;;5093264;28;20031;-86
2023/01/13 01:25:52;;;;;;;;;;;4.70;93.80;;;;;;5093258;28;20386;-87
2023/01/13 01:28:19;;;;;;;;;;;4.60;93.80;;;;;;5093238;28;19939;-87
2023/01/13 01:30:45;;;;;;;;;;;4.60;93.80;;;;;;5093162;28;20036;-87
2023/01/13 01:33:10;;;;;;;;;;;4.60;93.90;;;;;;5093208;28;19979;-87
2023/01/13 01:35:40;;;;;;;;;;;4.50;94.30;;;;;;5075006;28;19960;-87
2023/01/13 01:38:05;;;;;;;;;;;4.50;94.60;;;;;;5093398;28;19940;-87
2023/01/13 01:40:31;;;;;;;;;;;4.50;94.50;;;;;;5092886;28;20034;-87
2023/01/13 01:45:40;;;;;;;;;;;4.40;94.30;;;;;;5093118;28;20376;-86
2023/01/13 01:48:06;;;;;;;;;;;4.50;94.40;;;;;;5096677;28;19983;-87
2023/01/13 01:50:32;;;;;;;;;;;4.50;94.50;;;;;;5097147;28;20291;-87
2023/01/13 01:53:01;;;;;;;;;;;4.50;94.40;;;;;;5087082;28;20313;-87
2023/01/13 01:55:29;;;;;;;;;;;4.50;94.40;;;;;;5076563;28;19957;-87
2023/01/13 01:57:57;;;;;;;;;;;4.60;94.40;;;;;;5076573;28;19945;-87
2023/01/13 02:00:24;;;;;;;;;;;4.60;94.20;;;;;;5076658;28;20457;-87
2023/01/13 02:02:50;;;;;;;;;;;4.60;93.90;;;;;;5058683;28;20032;-86
2023/01/13 02:05:16;;;;;;;;;;;4.60;93.70;;;;;;5076596;28;20083;-87
2023/01/13 02:07:43;;;;;;;;;;;4.60;93.70;;;;;;5076513;28;19935;-87
2023/01/13 02:10:10;;;;;;;;;;;4.60;93.60;;;;;;5076466;28;20041;-87
2023/01/13 02:12:36;;;;;;;;;;;4.60;93.60;;;;;;5076020;28;19971;-87
2023/01/13 02:15:04;;;;;;;;;;;4.50;93.50;;;;;;5076367;28;19944;-87
2023/01/13 02:17:30;;;;;;;;;;;4.50;93.50;;;;;;5076327;28;19937;-87
2023/01/13 02:20:13;;;;;;;;;;;4.40;93.40;;;;;;5076279;28;20396;-87
2023/01/13 02:23:05;;;;;;;;;;;4.40;93.60;;;;;;5076209;28;20516;-87
2023/01/13 02:25:36;;;;;;;;;;;4.50;93.70;;;;;;5052655;28;19972;-87
2023/01/13 02:28:20;;;;;;;;;;;4.50;93.60;;;;;;5076074;28;19992;-87
2023/01/13 02:33:37;;;;;;;;;;;4.50;93.70;;;;;;5076373;28;20316;-87
2023/01/13 02:36:07;;;;;;;;;;;4.40;93.50;;;;;;5075863;28;19986;-86
2023/01/13 02:38:36;;;;;;;;;;;4.40;93.20;;;;;;5075952;28;19937;-87
2023/01/13 02:44:05;;;;;;;;;;;4.40;93.30;;;;;;5075575;28;20507;-87
2023/01/13 02:44:05;;;;;;;;;;;4.30;93.30;;;;;;5075747;28;20070;-87
2023/01/13 02:46:51;;;;;;;;;;;4.20;93.40;;;;;;5075766;28;19942;-86
2023/01/13 02:49:24;;;;;;;;;;;4.00;93.60;;;;;;5061428;28;19953;-87
2023/01/13 02:51:51;;;;;;;;;;;4.10;94.30;;;;;;5075621;28;19945;-87
2023/01/13 02:54:19;;;;;;;;;;;4.20;94.20;;;;;;5075406;28;19962;-87
2023/01/13 02:56:47;;;;;;;;;;;4.10;94.00;;;;;;5075259;28;19939;-87
2023/01/13 02:59:13;;;;;;;;;;;4.10;94.10;;;;;;5074415;28;19941;-86
2023/01/13 03:01:38;;;;;;;;;;;4.20;94.20;;;;;;5075558;28;20406;-87
2023/01/13 03:04:14;;;;;;;;;;;4.10;94.10;;;;;;5075479;28;19986;-86
2023/01/13 03:06:46;;;;;;;;;;;4.00;94.10;;;;;;5075421;28;19945;-86
2023/01/13 03:09:35;;;;;;;;;;;4.00;94.00;;;;;;5075408;28;19932;-86
2023/01/13 03:12:24;;;;;;;;;;;4.10;94.30;;;;;;5075061;28;19956;-86
2023/01/13 03:14:54;;;;;;;;;;;4.20;94.20;;;;;;5066922;28;19971;-86
2023/01/13 03:17:30;;;;;;;;;;;4.20;94.30;;;;;;5075282;28;19941;-86
2023/01/13 03:20:00;;;;;;;;;;;4.30;94.30;;;;;;5075215;28;19942;-86
2023/01/13 03:22:32;;;;;;;;;;;4.30;94.30;;;;;;5075122;28;20028;-87
2023/01/13 03:25:09;;;;;;;;;;;4.30;94.40;;;;;;5074653;28;19944;-86
2023/01/13 03:27:40;;;;;;;;;;;4.20;94.40;;;;;;5075061;28;19948;-86
2023/01/13 03:30:07;;;;;;;;;;;4.20;94.40;;;;;;5074959;28;20024;-86
2023/01/13 03:32:39;;;;;;;;;;;4.30;94.50;;;;;;5074935;28;19940;-86
2023/01/13 03:35:20;;;;;;;;;;;4.40;94.60;;;;;;5074838;28;20240;-86
2023/01/13 03:37:49;;;;;;;;;;;4.40;94.40;;;;;;5074865;28;19938;-86
2023/01/13 03:40:20;;;;;;;;;;;4.30;93.90;;;;;;5074717;28;19948;-87
2023/01/13 03:45:34;;;;;;;;;;;4.30;93.80;;;;;;5074754;28;19954;-87
2023/01/13 03:48:02;;;;;;;;;;;4.30;93.80;;;;;;5074660;28;19939;-87
2023/01/13 03:50:31;;;;;;;;;;;4.20;93.60;;;;;;5074817;28;20026;-87
2023/01/13 03:53:00;;;;;;;;;;;4.10;93.90;;;;;;5074518;28;19960;-87
2023/01/13 03:55:34;;;;;;;;;;;4.10;94.00;;;;;;5074596;28;19959;-87
2023/01/13 03:58:09;;;;;;;;;;;4.00;93.90;;;;;;5074715;28;19964;-87
2023/01/13 04:00:38;;;;;;;;;;;4.00;93.80;;;;;;5074430;28;19954;-87
2023/01/13 04:03:08;;;;;;;;;;;4.00;93.70;;;;;;5074368;28;19982;-87
2023/01/13 04:05:35;;;;;;;;;;;3.90;93.40;;;;;;5074345;28;19983;-87
2023/01/13 04:08:06;;;;;;;;;;;4.00;93.40;;;;;;5074259;28;19937;-87
2023/01/13 04:10:58;;;;;;;;;;;4.00;93.60;;;;;;5073987;28;19940;-87
2023/01/13 04:13:25;;;;;;;;;;;4.10;93.80;;;;;;5068472;28;20020;-87
2023/01/13 04:15:50;;;;;;;;;;;4.10;93.60;;;;;;5073921;28;19969;-87
2023/01/13 04:18:20;;;;;;;;;;;4.00;93.40;;;;;;5056360;28;20348;-87
2023/01/13 04:20:46;;;;;;;;;;;3.90;93.10;;;;;;5073997;28;19937;-87
2023/01/13 04:23:12;;;;;;;;;;;3.80;93.00;;;;;;5073972;28;19989;-87
2023/01/13 04:25:38;;;;;;;;;;;3.70;93.00;;;;;;5073899;28;19986;-87
2023/01/13 04:28:04;;;;;;;;;;;3.70;93.40;;;;;;5074136;28;19947;-87
2023/01/13 04:30:30;;;;;;;;;;;3.90;93.90;;;;;;5073835;28;19939;-87
2023/01/13 04:32:55;;;;;;;;;;;3.90;94.10;;;;;;5073728;28;19941;-87
2023/01/13 04:35:21;;;;;;;;;;;3.90;94.10;;;;;;5073655;28;19957;-87
2023/01/13 04:37:47;;;;;;;;;;;3.90;94.50;;;;;;5073655;28;19948;-87
2023/01/13 04:40:12;;;;;;;;;;;4.00;94.60;;;;;;5073471;28;19938;-87
2023/01/13 04:42:38;;;;;;;;;;;4.00;94.50;;;;;;5073495;28;19952;-87
2023/01/13 04:45:04;;;;;;;;;;;4.00;94.40;;;;;;5073561;28;19942;-87
2023/01/13 04:47:29;;;;;;;;;;;4.00;94.50;;;;;;5073493;28;19986;-87
2023/01/13 04:49:55;;;;;;;;;;;4.00;94.60;;;;;;5073512;28;19944;-87
2023/01/13 04:52:20;;;;;;;;;;;4.00;94.70;;;;;;5073385;28;20320;-87
2023/01/13 04:54:46;;;;;;;;;;;4.10;94.70;;;;;;5073245;28;19965;-87
2023/01/13 04:57:11;;;;;;;;;;;4.10;94.60;;;;;;5073313;28;19936;-87
2023/01/13 04:59:37;;;;;;;;;;;4.20;94.60;;;;;;5073275;28;19946;-87
2023/01/13 05:02:02;;;;;;;;;;;4.30;94.60;;;;;;5073612;28;19949;-87
2023/01/13 05:04:28;;;;;;;;;;;4.60;94.50;;;;;;5073239;28;19934;-87
2023/01/13 05:06:53;;;;;;;;;;;4.80;94.20;;;;;;5073257;28;19973;-87
2023/01/13 05:09:19;;;;;;;;;;;4.70;92.50;;;;;;5073217;28;19954;-87
2023/01/13 05:17:16;;;;;;;;;;;4.50;92.80;;;;;;5069682;28;20325;-87
2023/01/13 05:19:42;;;;;;;;;;;4.50;92.40;;;;;;5076700;28;19945;-87
2023/01/13 05:27:36;;;;;;;;;;;4.20;92.70;;;;;;5093225;28;20409;-87
2023/01/13 05:30:02;;;;;;;;;;;4.20;92.90;;;;;;5093164;28;20028;-87
2023/01/13 05:32:27;;;;;;;;;;;4.20;93.10;;;;;;5092991;28;20353;-87
2023/01/13 05:34:53;;;;;;;;;;;4.30;93.40;;;;;;5092955;28;19964;-87
2023/01/13 05:37:19;;;;;;;;;;;4.40;93.40;;;;;;5093035;28;19937;-87
2023/01/13 05:45:13;;;;;;;;;;;4.40;92.80;;;;;;5072593;28;20078;-87
2023/01/13 05:47:38;;;;;;;;;;;4.40;92.70;;;;;;5072786;28;20393;-87
2023/01/13 05:50:04;;;;;;;;;;;4.50;92.80;;;;;;5072269;28;20282;-87
2023/01/13 05:52:29;;;;;;;;;;;4.50;93.00;;;;;;5068775;28;20410;-87
2023/01/13 05:54:55;;;;;;;;;;;4.50;92.90;;;;;;5079761;28;19974;-87
2023/01/13 05:57:21;;;;;;;;;;;4.40;92.70;;;;;;5072762;28;20018;-87
2023/01/13 05:59:46;;;;;;;;;;;4.30;92.30;;;;;;5072816;28;19941;-87
2023/01/13 06:02:12;;;;;;;;;;;4.20;92.30;;;;;;5072677;28;20295;-87
2023/01/13 06:04:37;;;;;;;;;;;4.30;92.60;;;;;;5054665;28;19938;-87
2023/01/13 06:07:03;;;;;;;;;;;4.30;92.90;;;;;;5054699;28;19937;-87
2023/01/13 06:09:28;;;;;;;;;;;4.20;93.00;;;;;;5072632;28;19948;-87
2023/01/13 06:11:54;;;;;;;;;;;4.20;93.10;;;;;;5072315;28;19945;-87
2023/01/13 06:14:19;;;;;;;;;;;4.20;93.20;;;;;;5069999;28;19990;-87
2023/01/13 06:16:45;;;;;;;;;;;4.20;93.20;;;;;;5052605;28;19945;-87
2023/01/13 06:19:12;;;;;;;;;;;4.30;93.20;;;;;;5052534;28;20467;-87
2023/01/13 06:21:38;;;;;;;;;;;4.30;93.50;;;;;;5057569;28;19942;-87
2023/01/13 06:24:04;;;;;;;;;;;4.40;93.60;;;;;;5053736;28;19942;-87
2023/01/13 06:26:32;;;;;;;;;;;4.40;93.60;;;;;;5054259;28;19948;-87
2023/01/13 06:28:57;;;;;;;;;;;4.30;93.50;;;;;;5071756;28;19942;-87
2023/01/13 06:31:24;;;;;;;;;;;4.40;93.70;;;;;;5067477;28;19941;-87
2023/01/13 06:33:54;;;;;;;;;;;4.30;93.50;;;;;;5070589;28;19957;-87
2023/01/13 06:36:26;;;;;;;;;;;4.30;93.50;;;;;;5074279;28;19951;-87
2023/01/13 06:38:53;;;;;;;;;;;4.20;93.50;;;;;;5069515;28;20294;-87
2023/01/13 06:43:13;;;;;;;;;;;4.30;93.60;;;;;;5072503;28;19939;-87
2023/01/13 06:44:05;;;;;;;;;;;4.30;93.60;;;;;;5074041;28;19946;-87
2023/01/13 06:46:31;;;;;;;;;;;4.30;93.50;;;;;;5074399;28;19954;-87
2023/01/13 06:48:56;;;;;;;;;;;4.20;93.70;;;;;;5054073;28;20398;-87
2023/01/13 06:51:22;;;;;;;;;;;4.20;93.70;;;;;;5075067;28;19951;-87
2023/01/13 06:53:47;;;;;;;;;;;4.40;93.80;;;;;;5065838;28;19956;-87
2023/01/13 06:56:13;;;;;;;;;;;4.40;93.50;;;;;;5072771;28;20335;-87
2023/01/13 06:58:38;;;;;;;;;;;4.50;93.20;;;;;;5073446;28;19941;-87
2023/01/13 07:01:04;;;;;;;;;;;4.40;92.80;;;;;;5067631;28;19986;-87
2023/01/13 07:03:29;;;;;;;;;;;4.40;92.50;;;;;;5069521;28;19944;-87
2023/01/13 07:05:56;;;;;;;;;;;4.40;92.00;;;;;;5048957;28;19949;-87
2023/01/13 07:08:23;;;;;;;;;;;4.30;91.90;;;;;;5071073;28;19941;-87
2023/01/13 07:10:50;;;;;;;;;;;4.20;92.90;;;;;;5069340;28;19950;-87
2023/01/13 07:16:01;;;;;;;;;;;4.20;93.40;;;;;;5065716;28;20470;-87
2023/01/13 07:18:27;;;;;;;;;;;4.40;93.50;;;;;;5070647;28;19955;-87
2023/01/13 07:20:54;;;;;;;;;;;4.50;93.30;;;;;;5061981;28;20392;-87
2023/01/13 07:23:19;;;;;;;;;;;4.50;93.40;;;;;;5070552;28;19950;-87
2023/01/13 07:25:45;;;;;;;;;;;4.60;93.40;;;;;;5070291;28;19951;-87
2023/01/13 07:28:10;;;;;;;;;;;4.60;92.90;;;;;;5073001;28;19940;-87
2023/01/13 07:30:36;;;;;;;;;;;4.50;92.80;;;;;;5069519;28;19948;-87
2023/01/13 07:33:02;;;;;;;;;;;4.50;92.60;;;;;;5068829;28;19951;-87
2023/01/13 07:35:27;;;;;;;;;;;4.60;92.50;;;;;;5068989;28;19964;-87
2023/01/13 07:37:53;;;;;;;;;;;4.60;91.80;;;;;;5064112;28;20394;-86
2023/01/13 07:40:18;;;;;;;;;;;4.50;91.80;;;;;;5066844;28;19954;-87
2023/01/13 07:45:28;;;;;;;;;;;4.50;92.40;;;;;;5061831;28;19943;-86
2023/01/13 07:47:54;;;;;;;;;;;4.50;92.40;;;;;;5071516;28;19944;-87
2023/01/13 07:50:20;;;;;;;;;;;4.50;92.40;;;;;;5067863;28;19940;-87
2023/01/13 07:52:46;;;;;;;;;;;4.50;92.60;;;;;;5067816;28;20053;-87
2023/01/13 07:55:11;;;;;;;;;;;4.60;92.70;;;;;;5067296;28;20060;-87
2023/01/13 07:57:37;;;;;;;;;;;4.90;92.50;;;;;;5067615;28;19950;-87
2023/01/13 08:00:03;;;;;;;;;;;5.00;92.30;;;;;;5070977;28;19950;-87
2023/01/13 08:02:29;;;;;;;;;;;5.00;92.00;;;;;;5067951;28;20026;-87
2023/01/13 08:04:54;;;;;;;;;;;4.90;92.10;;;;;;5068857;28;20028;-87
2023/01/13 08:07:20;;;;;;;;;;;4.90;92.20;;;;;;5070500;28;20038;-86
2023/01/13 08:09:45;;;;;;;;;;;4.90;91.90;;;;;;5062799;28;20048;-86
2023/01/13 08:14:55;;;;;;;;;;;4.90;91.90;;;;;;5069199;28;19967;-87
2023/01/13 08:17:21;;;;;;;;;;;4.70;92.30;;;;;;5046371;28;19947;-86
2023/01/13 08:19:46;;;;;;;;;;;4.70;92.50;;;;;;5070656;28;19947;-87
2023/01/13 08:22:12;;;;;;;;;;;4.70;92.60;;;;;;5069969;28;20402;-87
2023/01/13 08:24:37;;;;;;;;;;;4.70;92.80;;;;;;5069813;28;19946;-86
2023/01/13 08:27:03;;;;;;;;;;;4.70;92.90;;;;;;5070479;28;19944;-86
2023/01/13 08:29:28;;;;;;;;;;;4.80;93.00;;;;;;5069470;28;19948;-86
2023/01/13 08:31:54;;;;;;;;;;;4.90;93.00;;;;;;5070002;28;19992;-87
2023/01/13 08:34:20;;;;;;;;;;;5.20;93.00;;;;;;5066448;28;20054;-87
2023/01/13 08:36:47;;;;;;;;;;;5.30;92.60;;;;;;5064685;28;20386;-87
2023/01/13 08:39:13;;;;;;;;;;;5.40;92.00;;;;;;5071087;28;19946;-86
2023/01/13 08:41:54;;;;;;;;;;;5.60;91.60;;;;;;5072129;28;19938;-86
2023/01/13 08:44:20;;;;;;;;;;;5.80;91.00;;;;;;5070544;28;19941;-86
2023/01/13 08:46:46;;;;;;;;;;;5.80;90.50;;;;;;5069255;28;19968;-87
2023/01/13 08:49:11;;;;;;;;;;;5.50;90.90;;;;;;5070472;28;19956;-87
2023/01/13 08:51:37;;;;;;;;;;;5.60;91.00;;;;;;5067268;28;19986;-86
2023/01/13 08:54:02;;;;;;;;;;;5.60;91.50;;;;;;5057219;28;19997;-86
2023/01/13 08:56:28;;;;;;;;;;;5.60;91.60;;;;;;5068259;28;19990;-87
2023/01/13 08:58:56;;;;;;;;;;;5.70;91.40;;;;;;5067294;28;20329;-86
2023/01/13 09:01:22;;;;;;;;;;;5.70;91.40;;;;;;5066906;28;20037;-86
2023/01/13 09:03:47;;;;;;;;;;;5.80;91.40;;;;;;5065666;28;20031;-88
2023/01/13 09:06:13;;;;;;;;;;;5.80;91.70;;;;;;5066489;28;19988;-87
2023/01/13 09:08:38;;;;;;;;;;;5.90;91.70;;;;;;5060076;28;19942;-87
2023/01/13 09:13:10;;;;;;;;;;;5.90;91.10;;;;;;5064504;28;19943;-87
2023/01/13 09:13:50;;;;;;;;;;;6.00;90.70;;;;;;5080283;22;19977;-87
2023/01/13 09:16:17;;;;;;;;;;;6.10;90.90;;;;;;5066817;28;20533;-87
2023/01/13 09:18:42;;;;;;;;;;;6.10;91.10;;;;;;5067064;28;20012;-88
2023/01/13 09:21:09;;;;;;;;;;;6.20;90.70;;;;;;5071150;28;19950;-87
2023/01/13 09:23:35;;;;;;;;;;;6.20;90.10;;;;;;5069126;28;20416;-88
2023/01/13 09:26:00;;;;;;;;;;;6.20;90.20;;;;;;5065553;28;19944;-88
2023/01/13 09:28:26;;;;;;;;;;;6.40;90.60;;;;;;5072982;28;19952;-87
2023/01/13 09:30:51;;;;;;;;;;;6.60;90.40;;;;;;5064187;28;20011;-87
2023/01/13 09:36:18;;;;;;;;;;;6.60;90.10;;;;;;5005448;28;19947;-87
2023/01/13 09:38:43;;;;;;;;;;;6.60;90.10;;;;;;5056688;28;19946;-87
2023/01/13 09:43:52;;;;;;;;;;;6.60;90.00;;;;;;5070450;28;20579;-87
2023/01/13 09:44:05;;;;;;;;;;;6.60;90.10;;;;;;5068703;28;20036;-88
2023/01/13 09:46:52;;;;;;;;;;;6.70;90.20;;;;;;5062975;28;20184;-88
2023/01/13 09:49:21;;;;;;;;;;;6.70;90.10;;;;;;5066467;28;19944;-88
2023/01/13 09:52:06;;;;;;;;;;;6.80;90.10;;;;;;5068549;28;19953;-87
2023/01/13 09:54:40;;;;;;;;;;;6.80;89.70;;;;;;5086855;28;19966;-88
2023/01/13 09:57:13;;;;;;;;;;;6.80;89.80;;;;;;5073383;28;19946;-88
2023/01/13 09:59:39;;;;;;;;;;;6.90;90.10;;;;;;5087531;28;20007;-87
2023/01/13 10:02:08;;;;;;;;;;;7.00;90.20;;;;;;5089917;28;20403;-88
2023/01/13 10:04:33;;;;;;;;;;;7.10;90.00;;;;;;5085914;28;19948;-88
2023/01/13 10:07:02;;;;;;;;;;;7.30;89.30;;;;;;5084102;28;19950;-88
2023/01/13 10:09:45;;;;;;;;;;;7.30;87.70;;;;;;5092649;28;20525;-87
2023/01/13 10:15:00;;;;;;;;;;;7.40;88.40;;;;;;5092450;28;20467;-87
2023/01/13 10:17:44;;;;;;;;;;;7.40;88.60;;;;;;5092590;28;20567;-87
2023/01/13 10:20:18;;;;;;;;;;;7.30;89.10;;;;;;5092264;28;19948;-87
2023/01/13 10:22:50;;;;;;;;;;;7.30;88.80;;;;;;5084158;28;19940;-88
2023/01/13 10:25:35;;;;;;;;;;;7.30;88.70;;;;;;5094331;28;19941;-88
2023/01/13 10:28:06;;;;;;;;;;;7.20;88.90;;;;;;5093557;28;19947;-87
2023/01/13 10:30:33;;;;;;;;;;;7.20;88.90;;;;;;5086854;28;19949;-87
2023/01/13 10:33:00;;;;;;;;;;;7.30;88.80;;;;;;5093235;28;19946;-88
2023/01/13 10:35:44;;;;;;;;;;;7.40;88.90;;;;;;5092417;28;19997;-88
2023/01/13 10:38:25;;;;;;;;;;;7.70;88.90;;;;;;5090531;28;19977;-87
2023/01/13 10:41:17;;;;;;;;;;;7.80;87.90;;;;;;5069965;28;20068;-87
2023/01/13 10:43:43;;;;;;;;;;;7.90;86.70;;;;;;5089784;28;19953;-87
2023/01/13 10:46:15;;;;;;;;;;;7.90;86.30;;;;;;5084789;28;20375;-88
2023/01/13 10:48:40;;;;;;;;;;;7.90;86.60;;;;;;5091755;28;19941;-88
2023/01/13 10:51:26;;;;;;;;;;;7.90;86.80;;;;;;5095149;28;20326;-88
2023/01/13 10:54:02;;;;;;;;;;;7.90;87.00;;;;;;5088372;28;19962;-88
2023/01/13 10:56:32;;;;;;;;;;;8.00;87.20;;;;;;5093535;28;19964;-88
2023/01/13 10:59:17;;;;;;;;;;;8.40;86.00;;;;;;5091436;28;19981;-88
2023/01/13 11:01:53;;;;;;;;;;;8.70;85.60;;;;;;5092959;28;19991;-88
2023/01/13 11:04:30;;;;;;;;;;;8.60;85.30;;;;;;5086316;28;19945;-88
2023/01/13 11:06:56;;;;;;;;;;;8.80;85.40;;;;;;5089505;28;20031;-88
2023/01/13 11:09:24;;;;;;;;;;;8.90;84.80;;;;;;5094815;28;20044;-87
2023/01/13 11:11:54;;;;;;;;;;;8.80;84.60;;;;;;5090169;28;20044;-88
2023/01/13 11:14:40;;;;;;;;;;;8.60;85.10;;;;;;5093380;28;20064;-87
2023/01/13 11:17:22;;;;;;;;;;;8.50;85.50;;;;;;5095208;28;19957;-87
2023/01/13 11:19:51;;;;;;;;;;;8.60;85.50;;;;;;5094753;28;19992;-87
2023/01/13 11:22:20;;;;;;;;;;;8.50;86.00;;;;;;5077170;28;19949;-88
2023/01/13 11:24:49;;;;;;;;;;;8.50;86.20;;;;;;5095298;28;20085;-87
2023/01/13 11:27:22;;;;;;;;;;;8.40;86.20;;;;;;5094876;28;19947;-88
2023/01/13 11:29:54;;;;;;;;;;;8.60;86.40;;;;;;5095088;28;19953;-87
2023/01/13 11:32:21;;;;;;;;;;;8.70;85.60;;;;;;5095312;28;20415;-87
2023/01/13 11:34:51;;;;;;;;;;;8.70;84.80;;;;;;5095449;28;20030;-87
2023/01/13 11:37:20;;;;;;;;;;;8.70;84.90;;;;;;5094887;28;19946;-88
2023/01/13 11:40:02;;;;;;;;;;;8.70;84.80;;;;;;5095147;28;19945;-88
2023/01/13 11:42:42;;;;;;;;;;;8.70;84.40;;;;;;5095081;28;19943;-88
2023/01/13 11:45:25;;;;;;;;;;;8.60;84.70;;;;;;5094852;28;19936;-88
2023/01/13 11:47:52;;;;;;;;;;;8.60;84.80;;;;;;5074758;28;19944;-88
2023/01/13 11:50:27;;;;;;;;;;;8.90;84.60;;;;;;5074709;28;19933;-88
2023/01/13 11:53:03;;;;;;;;;;;9.20;83.60;;;;;;5056534;28;19965;-88
2023/01/13 11:55:38;;;;;;;;;;;9.40;82.70;;;;;;5076853;28;20404;-88
2023/01/13 11:58:30;;;;;;;;;;;9.60;81.50;;;;;;5094787;28;19937;-87
2023/01/13 12:01:11;;;;;;;;;;;9.40;81.60;;;;;;5089615;28;20030;-87
2023/01/13 12:03:47;;;;;;;;;;;9.30;82.20;;;;;;5094665;28;20436;-87
2023/01/13 12:06:15;;;;;;;;;;;9.20;82.30;;;;;;5094330;28;19969;-88
2023/01/13 12:09:04;;;;;;;;;;;9.10;82.70;;;;;;5094699;28;19956;-88
2023/01/13 12:12:18;;;;;;;;;;;9.10;83.30;;;;;;5093153;28;19956;-88
2023/01/13 12:14:39;;;;;;;;;;;9.20;83.50;;;;;;5092708;28;20072;-88
2023/01/13 12:17:10;;;;;;;;;;;9.40;83.10;;;;;;5090604;28;19952;-88
2023/01/13 12:19:35;;;;;;;;;;;9.60;82.40;;;;;;5062344;28;20426;-88
2023/01/13 12:22:22;;;;;;;;;;;9.70;81.90;;;;;;5093613;28;19952;-88
2023/01/13 12:24:56;;;;;;;;;;;9.70;81.60;;;;;;5080855;28;19988;-87
2023/01/13 12:27:37;;;;;;;;;;;9.50;81.60;;;;;;5092781;28;19954;-87
2023/01/13 12:30:10;;;;;;;;;;;9.50;81.40;;;;;;5088841;28;19948;-88
2023/01/13 12:32:36;;;;;;;;;;;9.40;81.40;;;;;;5081076;28;19943;-87
2023/01/13 12:35:25;;;;;;;;;;;9.40;82.40;;;;;;5084083;28;19985;-88
2023/01/13 12:37:51;;;;;;;;;;;9.30;82.00;;;;;;5070440;28;19949;-87
2023/01/13 12:40:35;;;;;;;;;;;9.10;82.10;;;;;;5092619;28;20484;-88
2023/01/13 12:45:47;;;;;;;;;;;9.30;82.20;;;;;;5085479;28;19946;-88
2023/01/13 12:48:33;;;;;;;;;;;9.50;80.60;;;;;;5086027;28;19960;-88
2023/01/13 12:51:01;;;;;;;;;;;9.50;80.30;;;;;;5076348;28;19946;-88
2023/01/13 12:53:29;;;;;;;;;;;9.40;79.50;;;;;;5085814;28;19971;-88
2023/01/13 12:56:14;;;;;;;;;;;9.30;79.80;;;;;;5086023;28;19959;-88
2023/01/13 12:58:40;;;;;;;;;;;9.20;79.10;;;;;;5084684;28;19948;-88
2023/01/13 13:01:13;;;;;;;;;;;9.10;76.40;;;;;;5083521;28;19968;-87
2023/01/13 13:03:39;;;;;;;;;;;9.10;77.00;;;;;;5086746;28;19948;-88
2023/01/13 13:06:07;;;;;;;;;;;9.10;79.30;;;;;;5084709;28;20456;-88
2023/01/13 13:08:49;;;;;;;;;;;9.20;80.50;;;;;;5082632;28;19980;-88
2023/01/13 13:14:10;;;;;;;;;;;9.10;80.70;;;;;;5085646;28;19984;-88
2023/01/13 13:16:44;;;;;;;;;;;9.10;79.70;;;;;;5085847;28;20519;-88
2023/01/13 13:19:19;;;;;;;;;;;9.10;79.40;;;;;;5087109;28;19943;-88
2023/01/13 13:22:03;;;;;;;;;;;9.10;79.20;;;;;;5082304;28;20030;-88
2023/01/13 13:24:28;;;;;;;;;;;9.20;78.70;;;;;;5084877;28;20039;-88
2023/01/13 13:26:54;;;;;;;;;;;9.30;78.30;;;;;;5082001;28;19990;-88
2023/01/13 13:29:20;;;;;;;;;;;9.40;77.00;;;;;;5086414;28;20361;-87
2023/01/13 13:31:57;;;;;;;;;;;9.50;77.70;;;;;;5085170;28;20046;-87
2023/01/13 13:34:55;;;;;;;;;;;9.60;77.30;;;;;;5087629;28;19946;-87
2023/01/13 13:37:28;;;;;;;;;;;9.80;77.30;;;;;;5038861;28;19964;-88
2023/01/13 13:48:20;;;;;;;;;;;10.10;76.10;;;;;;5088029;28;19956;-88
2023/01/13 13:50:49;;;;;;;;;;;10.00;75.80;;;;;;5090307;28;20448;-88
2023/01/13 13:53:17;;;;;;;;;;;9.90;76.30;;;;;;5089968;28;19962;-88
2023/01/13 13:55:58;;;;;;;;;;;9.80;76.80;;;;;;5064603;28;20349;-87
2023/01/13 13:58:25;;;;;;;;;;;9.90;77.20;;;;;;5092461;28;19958;-87
2023/01/13 14:00:51;;;;;;;;;;;10.00;77.20;;;;;;5090007;28;20052;-87
2023/01/13 14:03:23;;;;;;;;;;;10.10;76.70;;;;;;5094320;28;19983;-87
2023/01/13 14:06:11;;;;;;;;;;;10.20;76.50;;;;;;5088274;28;19942;-87
2023/01/13 14:08:38;;;;;;;;;;;10.20;76.60;;;;;;5094305;28;20017;-87
2023/01/13 14:11:22;;;;;;;;;;;10.10;76.80;;;;;;5095688;28;19951;-87
2023/01/13 14:13:59;;;;;;;;;;;10.10;76.70;;;;;;5092463;28;19980;-87
2023/01/13 14:16:24;;;;;;;;;;;9.90;77.00;;;;;;5089068;28;19968;-87
2023/01/13 14:18:50;;;;;;;;;;;10.10;77.30;;;;;;5092476;28;19947;-88
2023/01/13 14:21:33;;;;;;;;;;;10.30;76.40;;;;;;5094542;28;20325;-87
2023/01/13 14:24:03;;;;;;;;;;;10.70;75.40;;;;;;5092851;28;19941;-87
2023/01/13 14:26:30;;;;;;;;;;;11.00;74.10;;;;;;5092602;28;20397;-87
2023/01/13 14:28:56;;;;;;;;;;;11.10;73.80;;;;;;5087281;28;19962;-88
2023/01/13 14:31:21;;;;;;;;;;;10.70;74.60;;;;;;5094078;28;19982;-88
2023/01/13 14:33:49;;;;;;;;;;;10.30;76.00;;;;;;5094139;28;19949;-87
2023/01/13 14:36:32;;;;;;;;;;;9.90;77.40;;;;;;5093454;28;19941;-87
2023/01/13 14:39:04;;;;;;;;;;;9.80;78.60;;;;;;5091548;28;20317;-87
2023/01/13 14:41:37;;;;;;;;;;;9.60;79.00;;;;;;5089114;28;19941;-87
2023/01/13 14:44:11;;;;;;;;;;;9.40;79.10;;;;;;5090387;28;19941;-87
2023/01/13 14:46:36;;;;;;;;;;;9.20;80.00;;;;;;5090478;28;19996;-87
2023/01/13 14:49:02;;;;;;;;;;;9.00;80.70;;;;;;5088173;28;19984;-87
2023/01/13 14:51:29;;;;;;;;;;;8.80;81.00;;;;;;5090511;28;20315;-87
2023/01/13 14:53:56;;;;;;;;;;;8.60;81.30;;;;;;5089088;28;19956;-87
2023/01/13 14:56:41;;;;;;;;;;;8.40;81.90;;;;;;5091053;28;20317;-87
2023/01/13 14:59:25;;;;;;;;;;;8.40;82.50;;;;;;5094350;28;20339;-87
2023/01/13 15:01:53;;;;;;;;;;;8.50;82.70;;;;;;5089939;28;20024;-88
2023/01/13 15:04:24;;;;;;;;;;;8.70;82.30;;;;;;5080635;28;19945;-88
2023/01/13 15:06:51;;;;;;;;;;;8.80;82.10;;;;;;5091570;28;20517;-87
2023/01/13 15:09:22;;;;;;;;;;;8.70;81.80;;;;;;5094820;28;19947;-87
2023/01/13 15:11:48;;;;;;;;;;;8.40;83.00;;;;;;5093112;28;19948;-87
2023/01/13 15:14:17;;;;;;;;;;;8.40;83.00;;;;;;5091861;28;19974;-86
2023/01/13 15:16:42;;;;;;;;;;;8.20;82.90;;;;;;5088880;28;20463;-87
2023/01/13 15:19:08;;;;;;;;;;;8.00;83.50;;;;;;5091681;28;19944;-87
2023/01/13 15:21:34;;;;;;;;;;;7.90;84.10;;;;;;5090199;28;19966;-87
2023/01/13 15:24:00;;;;;;;;;;;7.80;84.50;;;;;;5074737;28;19946;-87
2023/01/13 15:26:26;;;;;;;;;;;7.70;84.80;;;;;;5090609;28;20372;-87
2023/01/13 15:28:53;;;;;;;;;;;7.60;85.10;;;;;;5091031;28;19949;-87
2023/01/13 15:31:18;;;;;;;;;;;7.60;87.10;;;;;;5090238;28;19959;-87
2023/01/13 15:33:44;;;;;;;;;;;7.60;88.60;;;;;;5091679;28;19952;-87
2023/01/13 15:36:24;;;;;;;;;;;7.60;88.90;;;;;;5094778;28;20000;-87
2023/01/13 15:38:50;;;;;;;;;;;7.70;88.80;;;;;;5086273;28;19964;-87